sensor_id;sensor_type;location;lat;lon;timestamp;P1;durP1;ratioP1;P2;durP2;ratioP2
27921;SDS011;15261;50.356;10.340;2023-08-21T06:00:47;28.65;;;19.58;;
27921;SDS011;15261;50.356;10.340;2023-08-21T06:03:13;21.58;;;18.52;;
27921;SDS011;15261;50.356;10.340;2023-08-21T06:05:39;21.65;;;18.23;;
27921;SDS011;15261;50.356;10.340;2023-08-21T06:08:04;21.10;;;18.90;;
27921;SDS011;15261;50.356;10.340;2023-08-21T06:10:33;19.60;;;17.80;;
27921;SDS011;15261;50.356;10.340;2023-08-21T06:12:59;20.88;;;18.88;;
27921;SDS011;15261;50.356;10.340;2023-08-21T06:15:25;19.23;;;17.48;;
27921;SDS011;15261;50.356;10.340;2023-08-21T06:17:50;20.40;;;18.33;;
27921;SDS011;15261;50.356;10.340;2023-08-21T06:20:16;19.98;;;18.17;;
27921;SDS011;15261;50.356;10.340;2023-08-21T06:22:43;18.92;;;17.17;;
27921;SDS011;15261;50.356;10.340;2023-08-21T06:25:09;21.50;;;18.52;;
27921;SDS011;15261;50.356;10.340;2023-08-21T06:27:35;18.75;;;17.17;;
27921;SDS011;15261;50.356;10.340;2023-08-21T06:30:00;19.52;;;17.50;;
27921;SDS011;15261;50.356;10.340;2023-08-21T06:32:26;18.75;;;17.05;;
27921;SDS011;15261;50.356;10.340;2023-08-21T06:34:52;17.27;;;15.57;;
27921;SDS011;15261;50.356;10.340;2023-08-21T06:37:17;16.58;;;15.07;;
27921;SDS011;15261;50.356;10.340;2023-08-21T06:39:43;16.05;;;14.65;;
27921;SDS011;15261;50.356;10.340;2023-08-21T06:42:09;16.67;;;14.98;;
27921;SDS011;15261;50.356;10.340;2023-08-21T06:44:35;18.92;;;15.10;;
27921;SDS011;15261;50.356;10.340;2023-08-21T06:47:00;18.13;;;14.00;;
27921;SDS011;15261;50.356;10.340;2023-08-21T06:49:26;14.75;;;13.45;;
27921;SDS011;15261;50.356;10.340;2023-08-21T06:51:52;15.30;;;13.70;;
27921;SDS011;15261;50.356;10.340;2023-08-21T06:54:18;15.82;;;14.32;;
27921;SDS011;15261;50.356;10.340;2023-08-21T06:56:43;13.15;;;11.85;;
27921;SDS011;15261;50.356;10.340;2023-08-21T06:59:09;14.23;;;13.00;;
27921;SDS011;15261;50.356;10.340;2023-08-21T07:01:35;14.10;;;12.80;;
27921;SDS011;15261;50.356;10.340;2023-08-21T07:04:01;14.68;;;13.10;;
27921;SDS011;15261;50.356;10.340;2023-08-21T07:06:30;13.73;;;12.30;;
27921;SDS011;15261;50.356;10.340;2023-08-21T07:08:56;13.55;;;12.25;;
27921;SDS011;15261;50.356;10.340;2023-08-21T07:11:21;13.10;;;11.60;;
27921;SDS011;15261;50.356;10.340;2023-08-21T07:13:47;14.25;;;12.63;;
27921;SDS011;15261;50.356;10.340;2023-08-21T07:16:14;17.02;;;12.00;;
27921;SDS011;15261;50.356;10.340;2023-08-21T07:18:39;14.50;;;12.50;;
27921;SDS011;15261;50.356;10.340;2023-08-21T07:21:05;16.33;;;11.75;;
27921;SDS011;15261;50.356;10.340;2023-08-21T07:23:31;13.18;;;11.65;;
27921;SDS011;15261;50.356;10.340;2023-08-21T07:25:58;13.23;;;11.90;;
27921;SDS011;15261;50.356;10.340;2023-08-21T07:28:23;13.70;;;12.10;;
27921;SDS011;15261;50.356;10.340;2023-08-21T07:30:56;13.27;;;11.93;;
27921;SDS011;15261;50.356;10.340;2023-08-21T07:33:23;13.98;;;11.43;;
27921;SDS011;15261;50.356;10.340;2023-08-21T07:38:24;15.57;;;11.25;;
27921;SDS011;15261;50.356;10.340;2023-08-21T07:40:50;14.98;;;10.98;;
27921;SDS011;15261;50.356;10.340;2023-08-21T07:43:16;12.88;;;11.25;;
27921;SDS011;15261;50.356;10.340;2023-08-21T07:45:41;12.95;;;11.52;;
27921;SDS011;15261;50.356;10.340;2023-08-21T07:48:07;17.55;;;11.25;;
27921;SDS011;15261;50.356;10.340;2023-08-21T07:50:33;11.88;;;10.68;;
27921;SDS011;15261;50.356;10.340;2023-08-21T07:52:58;11.88;;;10.68;;
27921;SDS011;15261;50.356;10.340;2023-08-21T07:55:24;11.07;;;10.07;;
27921;SDS011;15261;50.356;10.340;2023-08-21T07:57:49;12.07;;;10.35;;
27921;SDS011;15261;50.356;10.340;2023-08-21T08:00:15;15.57;;;9.93;;
27921;SDS011;15261;50.356;10.340;2023-08-21T08:02:41;15.10;;;10.25;;
27921;SDS011;15261;50.356;10.340;2023-08-21T08:05:08;13.50;;;10.90;;
27921;SDS011;15261;50.356;10.340;2023-08-21T08:07:34;11.25;;;9.45;;
27921;SDS011;15261;50.356;10.340;2023-08-21T08:10:00;10.75;;;9.65;;
27921;SDS011;15261;50.356;10.340;2023-08-21T08:12:25;11.25;;;9.85;;
27921;SDS011;15261;50.356;10.340;2023-08-21T08:14:51;10.65;;;9.63;;
27921;SDS011;15261;50.356;10.340;2023-08-21T08:17:17;12.02;;;9.48;;
27921;SDS011;15261;50.356;10.340;2023-08-21T08:19:43;10.48;;;9.55;;
27921;SDS011;15261;50.356;10.340;2023-08-21T08:22:08;17.20;;;10.07;;
27921;SDS011;15261;50.356;10.340;2023-08-21T08:24:34;12.13;;;9.38;;
27921;SDS011;15261;50.356;10.340;2023-08-21T08:27:02;11.98;;;9.43;;
27921;SDS011;15261;50.356;10.340;2023-08-21T08:29:29;10.57;;;9.43;;
27921;SDS011;15261;50.356;10.340;2023-08-21T08:31:55;10.65;;;9.77;;
27921;SDS011;15261;50.356;10.340;2023-08-21T08:34:20;14.20;;;9.65;;
27921;SDS011;15261;50.356;10.340;2023-08-21T08:36:46;10.55;;;9.63;;
27921;SDS011;15261;50.356;10.340;2023-08-21T08:39:12;10.82;;;9.88;;
27921;SDS011;15261;50.356;10.340;2023-08-21T08:41:38;12.65;;;9.40;;
27921;SDS011;15261;50.356;10.340;2023-08-21T08:44:31;12.43;;;9.20;;
27921;SDS011;15261;50.356;10.340;2023-08-21T08:47:03;10.57;;;9.55;;
27921;SDS011;15261;50.356;10.340;2023-08-21T08:49:29;10.20;;;9.15;;
27921;SDS011;15261;50.356;10.340;2023-08-21T08:51:56;9.95;;;9.00;;
27921;SDS011;15261;50.356;10.340;2023-08-21T08:54:23;10.38;;;9.27;;
27921;SDS011;15261;50.356;10.340;2023-08-21T08:56:50;10.70;;;9.60;;
27921;SDS011;15261;50.356;10.340;2023-08-21T08:59:16;9.52;;;8.70;;
27921;SDS011;15261;50.356;10.340;2023-08-21T09:01:42;9.20;;;8.30;;
27921;SDS011;15261;50.356;10.340;2023-08-21T09:04:08;13.10;;;8.57;;
27921;SDS011;15261;50.356;10.340;2023-08-21T09:06:35;13.40;;;8.77;;
27921;SDS011;15261;50.356;10.340;2023-08-21T09:09:01;11.60;;;8.50;;
27921;SDS011;15261;50.356;10.340;2023-08-21T09:11:26;9.75;;;8.40;;
27921;SDS011;15261;50.356;10.340;2023-08-21T09:13:54;10.00;;;8.98;;
27921;SDS011;15261;50.356;10.340;2023-08-21T09:16:21;14.40;;;8.75;;
27921;SDS011;15261;50.356;10.340;2023-08-21T09:18:52;9.32;;;8.45;;
27921;SDS011;15261;50.356;10.340;2023-08-21T09:21:22;12.40;;;8.63;;
27921;SDS011;15261;50.356;10.340;2023-08-21T09:23:51;9.13;;;7.40;;
27921;SDS011;15261;50.356;10.340;2023-08-21T09:26:30;10.70;;;7.63;;
27921;SDS011;15261;50.356;10.340;2023-08-21T09:28:59;7.88;;;7.18;;
27921;SDS011;15261;50.356;10.340;2023-08-21T09:31:33;8.18;;;6.88;;
27921;SDS011;15261;50.356;10.340;2023-08-21T09:33:59;7.55;;;6.85;;
27921;SDS011;15261;50.356;10.340;2023-08-21T09:36:29;7.68;;;6.35;;
27921;SDS011;15261;50.356;10.340;2023-08-21T09:38:55;8.32;;;6.65;;
27921;SDS011;15261;50.356;10.340;2023-08-21T09:41:22;12.93;;;7.03;;
27921;SDS011;15261;50.356;10.340;2023-08-21T09:43:49;8.48;;;6.53;;
27921;SDS011;15261;50.356;10.340;2023-08-21T09:46:15;14.43;;;6.20;;
27921;SDS011;15261;50.356;10.340;2023-08-21T09:48:43;7.45;;;6.82;;
27921;SDS011;15261;50.356;10.340;2023-08-21T09:51:12;18.23;;;6.43;;
27921;SDS011;15261;50.356;10.340;2023-08-21T09:53:38;8.35;;;6.60;;
27921;SDS011;15261;50.356;10.340;2023-08-21T09:56:05;6.60;;;6.00;;
27921;SDS011;15261;50.356;10.340;2023-08-21T09:58:32;9.90;;;6.35;;
27921;SDS011;15261;50.356;10.340;2023-08-21T10:00:58;7.72;;;6.57;;
27921;SDS011;15261;50.356;10.340;2023-08-21T10:03:25;7.30;;;5.97;;
27921;SDS011;15261;50.356;10.340;2023-08-21T10:05:51;7.70;;;5.95;;
27921;SDS011;15261;50.356;10.340;2023-08-21T10:08:22;6.45;;;5.60;;
27921;SDS011;15261;50.356;10.340;2023-08-21T10:10:50;8.43;;;6.10;;
27921;SDS011;15261;50.356;10.340;2023-08-21T10:13:15;9.00;;;5.78;;
27921;SDS011;15261;50.356;10.340;2023-08-21T10:15:41;6.53;;;5.35;;
27921;SDS011;15261;50.356;10.340;2023-08-21T10:18:21;8.93;;;5.25;;
27921;SDS011;15261;50.356;10.340;2023-08-21T10:20:51;7.32;;;5.53;;
27921;SDS011;15261;50.356;10.340;2023-08-21T10:23:25;10.68;;;5.60;;
27921;SDS011;15261;50.356;10.340;2023-08-21T10:25:59;6.25;;;4.95;;
27921;SDS011;15261;50.356;10.340;2023-08-21T10:31:38;6.45;;;4.80;;
27921;SDS011;15261;50.356;10.340;2023-08-21T10:34:05;5.40;;;4.75;;
27921;SDS011;15261;50.356;10.340;2023-08-21T10:44:35;4.97;;;4.38;;
27921;SDS011;15261;50.356;10.340;2023-08-21T10:47:14;4.97;;;4.43;;
27921;SDS011;15261;50.356;10.340;2023-08-21T10:49:45;5.75;;;5.15;;
27921;SDS011;15261;50.356;10.340;2023-08-21T10:52:12;5.88;;;5.15;;
27921;SDS011;15261;50.356;10.340;2023-08-21T10:54:47;7.80;;;5.05;;
27921;SDS011;15261;50.356;10.340;2023-08-21T10:57:15;12.32;;;5.32;;
27921;SDS011;15261;50.356;10.340;2023-08-21T11:02:16;5.63;;;5.07;;
27921;SDS011;15261;50.356;10.340;2023-08-21T11:04:41;5.63;;;4.97;;
27921;SDS011;15261;50.356;10.340;2023-08-21T11:07:09;4.90;;;4.40;;
27921;SDS011;15261;50.356;10.340;2023-08-21T11:09:36;5.43;;;4.88;;
27921;SDS011;15261;50.356;10.340;2023-08-21T11:12:12;5.80;;;4.47;;
27921;SDS011;15261;50.356;10.340;2023-08-21T11:14:47;7.40;;;4.60;;
27921;SDS011;15261;50.356;10.340;2023-08-21T11:17:22;8.00;;;4.90;;
27921;SDS011;15261;50.356;10.340;2023-08-21T11:19:51;5.15;;;4.65;;
27921;SDS011;15261;50.356;10.340;2023-08-21T11:22:20;5.10;;;4.57;;
27921;SDS011;15261;50.356;10.340;2023-08-21T11:25:06;5.18;;;4.78;;
27921;SDS011;15261;50.356;10.340;2023-08-21T11:27:33;5.28;;;4.82;;
27921;SDS011;15261;50.356;10.340;2023-08-21T11:30:11;5.78;;;5.03;;
27921;SDS011;15261;50.356;10.340;2023-08-21T11:33:11;6.53;;;4.93;;
27921;SDS011;15261;50.356;10.340;2023-08-21T11:35:38;5.72;;;4.88;;
27921;SDS011;15261;50.356;10.340;2023-08-21T11:38:17;5.45;;;4.93;;
27921;SDS011;15261;50.356;10.340;2023-08-21T11:40:53;7.55;;;4.88;;
27921;SDS011;15261;50.356;10.340;2023-08-21T11:43:42;5.20;;;4.70;;
27921;SDS011;15261;50.356;10.340;2023-08-21T11:46:13;5.53;;;4.90;;
27921;SDS011;15261;50.356;10.340;2023-08-21T11:48:42;6.65;;;4.53;;
27921;SDS011;15261;50.356;10.340;2023-08-21T11:51:09;5.88;;;5.20;;
27921;SDS011;15261;50.356;10.340;2023-08-21T11:53:39;5.80;;;5.30;;
27921;SDS011;15261;50.356;10.340;2023-08-21T11:56:14;11.30;;;5.32;;
27921;SDS011;15261;50.356;10.340;2023-08-21T11:58:44;9.65;;;5.40;;
27921;SDS011;15261;50.356;10.340;2023-08-21T12:01:16;5.68;;;5.07;;
27921;SDS011;15261;50.356;10.340;2023-08-21T12:03:45;5.18;;;4.70;;
27921;SDS011;15261;50.356;10.340;2023-08-21T12:06:11;9.05;;;5.30;;
27921;SDS011;15261;50.356;10.340;2023-08-21T12:08:38;7.90;;;5.43;;
27921;SDS011;15261;50.356;10.340;2023-08-21T12:11:04;6.75;;;5.22;;
27921;SDS011;15261;50.356;10.340;2023-08-21T12:13:32;9.75;;;5.28;;
27921;SDS011;15261;50.356;10.340;2023-08-21T12:15:58;9.73;;;5.28;;
27921;SDS011;15261;50.356;10.340;2023-08-21T12:18:24;8.35;;;4.78;;
27921;SDS011;15261;50.356;10.340;2023-08-21T12:20:49;5.35;;;4.60;;
27921;SDS011;15261;50.356;10.340;2023-08-21T12:23:16;7.30;;;4.75;;
27921;SDS011;15261;50.356;10.340;2023-08-21T12:25:45;8.77;;;4.88;;
27921;SDS011;15261;50.356;10.340;2023-08-21T12:28:11;6.82;;;4.82;;
27921;SDS011;15261;50.356;10.340;2023-08-21T12:30:37;6.10;;;5.18;;
27921;SDS011;15261;50.356;10.340;2023-08-21T12:33:02;6.40;;;4.85;;
27921;SDS011;15261;50.356;10.340;2023-08-21T12:35:28;5.65;;;4.80;;
27921;SDS011;15261;50.356;10.340;2023-08-21T12:37:55;7.93;;;4.70;;
27921;SDS011;15261;50.356;10.340;2023-08-21T12:40:22;4.70;;;4.20;;
27921;SDS011;15261;50.356;10.340;2023-08-21T12:42:55;5.55;;;4.43;;
27921;SDS011;15261;50.356;10.340;2023-08-21T12:45:20;5.38;;;4.47;;
27921;SDS011;15261;50.356;10.340;2023-08-21T12:47:46;5.88;;;4.32;;
27921;SDS011;15261;50.356;10.340;2023-08-21T12:50:14;8.43;;;4.55;;
27921;SDS011;15261;50.356;10.340;2023-08-21T12:52:40;5.20;;;4.55;;
27921;SDS011;15261;50.356;10.340;2023-08-21T12:55:06;4.63;;;3.78;;
27921;SDS011;15261;50.356;10.340;2023-08-21T12:57:32;5.35;;;4.00;;
27921;SDS011;15261;50.356;10.340;2023-08-21T12:59:58;4.40;;;4.00;;
27921;SDS011;15261;50.356;10.340;2023-08-21T13:02:24;5.75;;;4.15;;
27921;SDS011;15261;50.356;10.340;2023-08-21T13:32:11;6.10;;;3.80;;
27921;SDS011;15261;50.356;10.340;2023-08-21T13:34:37;4.93;;;4.10;;
27921;SDS011;15261;50.356;10.340;2023-08-21T14:01:37;4.30;;;3.50;;
27921;SDS011;15261;50.356;10.340;2023-08-21T14:04:04;4.32;;;3.85;;
27921;SDS011;15261;50.356;10.340;2023-08-21T14:06:29;4.20;;;3.55;;
27921;SDS011;15261;50.356;10.340;2023-08-21T14:08:55;4.97;;;3.58;;
27921;SDS011;15261;50.356;10.340;2023-08-21T14:11:21;4.63;;;3.45;;
27921;SDS011;15261;50.356;10.340;2023-08-21T14:13:49;8.57;;;3.72;;
27921;SDS011;15261;50.356;10.340;2023-08-21T14:16:18;4.25;;;3.53;;
27921;SDS011;15261;50.356;10.340;2023-08-21T14:18:48;9.57;;;3.38;;
27921;SDS011;15261;50.356;10.340;2023-08-21T14:21:14;3.42;;;3.10;;
27921;SDS011;15261;50.356;10.340;2023-08-21T14:23:47;5.20;;;3.20;;
27921;SDS011;15261;50.356;10.340;2023-08-21T14:26:14;3.28;;;2.75;;
27921;SDS011;15261;50.356;10.340;2023-08-21T14:28:45;3.33;;;3.03;;
27921;SDS011;15261;50.356;10.340;2023-08-21T14:31:15;5.55;;;2.92;;
27921;SDS011;15261;50.356;10.340;2023-08-21T14:33:41;4.30;;;2.80;;
27921;SDS011;15261;50.356;10.340;2023-08-21T14:36:09;5.07;;;2.80;;
27921;SDS011;15261;50.356;10.340;2023-08-21T14:38:35;4.63;;;2.72;;
27921;SDS011;15261;50.356;10.340;2023-08-21T14:41:10;4.05;;;2.70;;
27921;SDS011;15261;50.356;10.340;2023-08-21T14:43:36;5.82;;;2.72;;
27921;SDS011;15261;50.356;10.340;2023-08-21T14:46:09;2.95;;;2.58;;
27921;SDS011;15261;50.356;10.340;2023-08-21T14:48:37;3.33;;;2.72;;
27921;SDS011;15261;50.356;10.340;2023-08-21T14:51:06;3.13;;;2.63;;
27921;SDS011;15261;50.356;10.340;2023-08-21T14:53:32;5.75;;;2.90;;
27921;SDS011;15261;50.356;10.340;2023-08-21T14:55:58;3.35;;;2.88;;
27921;SDS011;15261;50.356;10.340;2023-08-21T14:58:42;4.88;;;2.75;;
27921;SDS011;15261;50.356;10.340;2023-08-21T15:01:12;3.78;;;2.63;;
27921;SDS011;15261;50.356;10.340;2023-08-21T15:03:43;4.18;;;2.80;;
27921;SDS011;15261;50.356;10.340;2023-08-21T15:06:12;2.70;;;2.50;;
27921;SDS011;15261;50.356;10.340;2023-08-21T15:08:41;4.18;;;2.42;;
27921;SDS011;15261;50.356;10.340;2023-08-21T15:11:35;3.17;;;2.50;;
27921;SDS011;15261;50.356;10.340;2023-08-21T15:14:08;4.43;;;2.35;;
27921;SDS011;15261;50.356;10.340;2023-08-21T15:16:43;4.28;;;2.63;;
27921;SDS011;15261;50.356;10.340;2023-08-21T15:19:11;3.35;;;2.30;;
27921;SDS011;15261;50.356;10.340;2023-08-21T15:21:40;3.15;;;2.50;;
27921;SDS011;15261;50.356;10.340;2023-08-21T15:24:08;6.55;;;2.40;;
27921;SDS011;15261;50.356;10.340;2023-08-21T15:26:45;2.60;;;2.40;;
27921;SDS011;15261;50.356;10.340;2023-08-21T15:29:11;2.70;;;2.50;;
27921;SDS011;15261;50.356;10.340;2023-08-21T15:34:41;3.25;;;2.53;;
27921;SDS011;15261;50.356;10.340;2023-08-21T15:37:11;2.50;;;2.30;;
27921;SDS011;15261;50.356;10.340;2023-08-21T15:39:40;5.35;;;2.70;;
27921;SDS011;15261;50.356;10.340;2023-08-21T15:45:38;2.63;;;2.42;;
27921;SDS011;15261;50.356;10.340;2023-08-21T15:48:04;2.70;;;2.47;;
27921;SDS011;15261;50.356;10.340;2023-08-21T15:50:30;4.22;;;2.53;;
27921;SDS011;15261;50.356;10.340;2023-08-21T15:52:55;2.80;;;2.60;;
27921;SDS011;15261;50.356;10.340;2023-08-21T15:55:21;3.03;;;2.55;;
27921;SDS011;15261;50.356;10.340;2023-08-21T15:57:48;2.78;;;2.42;;
27921;SDS011;15261;50.356;10.340;2023-08-21T16:00:15;3.13;;;2.25;;
27921;SDS011;15261;50.356;10.340;2023-08-21T16:05:29;2.60;;;2.40;;
27921;SDS011;15261;50.356;10.340;2023-08-21T16:07:55;4.78;;;2.70;;
27921;SDS011;15261;50.356;10.340;2023-08-21T16:10:29;3.25;;;2.63;;
27921;SDS011;15261;50.356;10.340;2023-08-21T16:13:08;3.88;;;2.22;;
27921;SDS011;15261;50.356;10.340;2023-08-21T16:15:34;2.83;;;2.63;;
27921;SDS011;15261;50.356;10.340;2023-08-21T16:18:00;5.57;;;2.58;;
27921;SDS011;15261;50.356;10.340;2023-08-21T16:20:26;3.25;;;2.33;;
27921;SDS011;15261;50.356;10.340;2023-08-21T16:22:57;4.70;;;2.33;;
27921;SDS011;15261;50.356;10.340;2023-08-21T16:25:39;3.33;;;2.47;;
27921;SDS011;15261;50.356;10.340;2023-08-21T16:28:04;3.53;;;2.60;;
27921;SDS011;15261;50.356;10.340;2023-08-21T16:30:30;3.80;;;2.35;;
27921;SDS011;15261;50.356;10.340;2023-08-21T16:32:56;3.53;;;2.38;;
27921;SDS011;15261;50.356;10.340;2023-08-21T16:35:23;2.40;;;2.20;;
27921;SDS011;15261;50.356;10.340;2023-08-21T16:37:55;3.47;;;2.42;;
27921;SDS011;15261;50.356;10.340;2023-08-21T16:40:21;2.63;;;2.25;;
27921;SDS011;15261;50.356;10.340;2023-08-21T16:42:54;3.28;;;2.40;;
27921;SDS011;15261;50.356;10.340;2023-08-21T16:45:20;3.25;;;2.10;;
27921;SDS011;15261;50.356;10.340;2023-08-21T16:47:45;4.90;;;2.40;;
27921;SDS011;15261;50.356;10.340;2023-08-21T16:52:56;2.67;;;2.40;;
27921;SDS011;15261;50.356;10.340;2023-08-21T16:55:22;2.30;;;2.10;;
27921;SDS011;15261;50.356;10.340;2023-08-21T16:57:48;3.80;;;2.15;;
27921;SDS011;15261;50.356;10.340;2023-08-21T17:00:13;3.08;;;2.53;;
27921;SDS011;15261;50.356;10.340;2023-08-21T17:02:40;3.03;;;2.20;;
27921;SDS011;15261;50.356;10.340;2023-08-21T17:05:06;2.67;;;2.40;;
27921;SDS011;15261;50.356;10.340;2023-08-21T17:07:32;3.90;;;2.40;;
27921;SDS011;15261;50.356;10.340;2023-08-21T17:10:02;3.28;;;2.50;;
27921;SDS011;15261;50.356;10.340;2023-08-21T17:12:28;3.47;;;2.17;;
27921;SDS011;15261;50.356;10.340;2023-08-21T17:14:54;3.83;;;2.20;;
27921;SDS011;15261;50.356;10.340;2023-08-21T17:17:20;2.63;;;2.42;;
27921;SDS011;15261;50.356;10.340;2023-08-21T17:19:52;4.93;;;2.10;;
27921;SDS011;15261;50.356;10.340;2023-08-21T17:22:20;2.38;;;2.15;;
27921;SDS011;15261;50.356;10.340;2023-08-21T17:24:45;4.22;;;2.45;;
27921;SDS011;15261;50.356;10.340;2023-08-21T17:27:11;4.43;;;2.42;;
27921;SDS011;15261;50.356;10.340;2023-08-21T17:29:37;2.85;;;2.10;;
27921;SDS011;15261;50.356;10.340;2023-08-21T17:32:14;5.47;;;2.50;;
27921;SDS011;15261;50.356;10.340;2023-08-21T17:34:43;4.43;;;2.40;;
27921;SDS011;15261;50.356;10.340;2023-08-21T17:37:09;5.72;;;2.22;;
27921;SDS011;15261;50.356;10.340;2023-08-21T17:39:35;3.75;;;2.40;;
27921;SDS011;15261;50.356;10.340;2023-08-21T17:42:02;7.78;;;2.50;;
27921;SDS011;15261;50.356;10.340;2023-08-21T17:44:42;6.72;;;2.50;;
27921;SDS011;15261;50.356;10.340;2023-08-21T17:47:08;4.35;;;2.85;;
27921;SDS011;15261;50.356;10.340;2023-08-21T17:49:33;3.03;;;2.70;;
27921;SDS011;15261;50.356;10.340;2023-08-21T17:51:59;6.50;;;2.30;;
27921;SDS011;15261;50.356;10.340;2023-08-21T17:54:28;3.17;;;2.72;;
27921;SDS011;15261;50.356;10.340;2023-08-21T17:56:54;3.85;;;2.50;;
27921;SDS011;15261;50.356;10.340;2023-08-21T17:59:20;8.52;;;2.55;;
27921;SDS011;15261;50.356;10.340;2023-08-21T18:01:45;8.43;;;2.60;;
27921;SDS011;15261;50.356;10.340;2023-08-21T18:04:11;6.28;;;2.50;;
27921;SDS011;15261;50.356;10.340;2023-08-21T18:06:37;4.55;;;2.47;;
27921;SDS011;15261;50.356;10.340;2023-08-21T18:09:04;3.83;;;2.67;;
27921;SDS011;15261;50.356;10.340;2023-08-21T18:11:31;4.90;;;2.60;;
27921;SDS011;15261;50.356;10.340;2023-08-21T18:14:21;3.47;;;2.58;;
27921;SDS011;15261;50.356;10.340;2023-08-21T18:16:55;7.95;;;2.90;;
27921;SDS011;15261;50.356;10.340;2023-08-21T18:19:28;9.80;;;2.50;;
27921;SDS011;15261;50.356;10.340;2023-08-21T18:21:54;6.90;;;2.85;;
27921;SDS011;15261;50.356;10.340;2023-08-21T18:24:20;5.95;;;2.70;;
27921;SDS011;15261;50.356;10.340;2023-08-21T18:26:46;5.80;;;2.50;;
27921;SDS011;15261;50.356;10.340;2023-08-21T18:29:11;6.85;;;2.78;;
27921;SDS011;15261;50.356;10.340;2023-08-21T18:31:37;3.25;;;2.95;;
27921;SDS011;15261;50.356;10.340;2023-08-21T18:34:03;3.25;;;3.03;;
27921;SDS011;15261;50.356;10.340;2023-08-21T18:36:29;6.03;;;3.10;;
27921;SDS011;15261;50.356;10.340;2023-08-21T18:38:57;3.17;;;2.88;;
27921;SDS011;15261;50.356;10.340;2023-08-21T18:41:27;6.07;;;3.10;;
27921;SDS011;15261;50.356;10.340;2023-08-21T18:43:53;3.22;;;2.67;;
27921;SDS011;15261;50.356;10.340;2023-08-21T18:46:22;5.30;;;2.78;;
27921;SDS011;15261;50.356;10.340;2023-08-21T18:48:51;3.78;;;2.95;;
27921;SDS011;15261;50.356;10.340;2023-08-21T18:51:17;3.30;;;2.88;;
27921;SDS011;15261;50.356;10.340;2023-08-21T18:53:43;6.50;;;3.03;;
27921;SDS011;15261;50.356;10.340;2023-08-21T18:56:09;5.45;;;2.88;;
27921;SDS011;15261;50.356;10.340;2023-08-21T18:58:36;5.95;;;3.15;;
27921;SDS011;15261;50.356;10.340;2023-08-21T19:01:17;7.80;;;2.90;;
27921;SDS011;15261;50.356;10.340;2023-08-21T19:03:43;5.30;;;2.70;;
27921;SDS011;15261;50.356;10.340;2023-08-21T19:06:08;3.60;;;3.17;;
27921;SDS011;15261;50.356;10.340;2023-08-21T19:08:34;5.13;;;3.08;;
27921;SDS011;15261;50.356;10.340;2023-08-21T19:11:00;6.53;;;3.10;;
27921;SDS011;15261;50.356;10.340;2023-08-21T19:13:26;5.07;;;3.10;;
27921;SDS011;15261;50.356;10.340;2023-08-21T19:15:57;4.30;;;2.80;;
27921;SDS011;15261;50.356;10.340;2023-08-21T19:18:24;3.90;;;2.88;;
27921;SDS011;15261;50.356;10.340;2023-08-21T19:20:50;6.63;;;3.10;;
27921;SDS011;15261;50.356;10.340;2023-08-21T19:23:16;4.50;;;3.13;;
27921;SDS011;15261;50.356;10.340;2023-08-21T19:25:47;4.22;;;2.72;;
27921;SDS011;15261;50.356;10.340;2023-08-21T19:28:13;8.75;;;3.45;;
27921;SDS011;15261;50.356;10.340;2023-08-21T19:30:40;4.22;;;2.90;;
27921;SDS011;15261;50.356;10.340;2023-08-21T19:33:07;7.22;;;3.10;;
27921;SDS011;15261;50.356;10.340;2023-08-21T19:35:33;6.28;;;3.50;;
27921;SDS011;15261;50.356;10.340;2023-08-21T19:38:00;6.05;;;3.58;;
27921;SDS011;15261;50.356;10.340;2023-08-21T19:40:25;10.68;;;4.85;;
27921;SDS011;15261;50.356;10.340;2023-08-21T19:42:51;12.52;;;5.15;;
27921;SDS011;15261;50.356;10.340;2023-08-21T19:45:16;9.90;;;5.65;;
27921;SDS011;15261;50.356;10.340;2023-08-21T19:47:45;16.33;;;6.65;;
27921;SDS011;15261;50.356;10.340;2023-08-21T19:53:19;8.50;;;4.45;;
27921;SDS011;15261;50.356;10.340;2023-08-21T19:55:47;9.10;;;3.80;;
27921;SDS011;15261;50.356;10.340;2023-08-21T19:58:17;7.57;;;3.88;;
27921;SDS011;15261;50.356;10.340;2023-08-21T20:00:43;5.47;;;3.28;;
27921;SDS011;15261;50.356;10.340;2023-08-21T20:03:23;9.07;;;3.72;;
27921;SDS011;15261;50.356;10.340;2023-08-21T20:05:49;5.50;;;4.35;;
27921;SDS011;15261;50.356;10.340;2023-08-21T20:08:19;6.65;;;3.88;;
27921;SDS011;15261;50.356;10.340;2023-08-21T20:10:48;5.97;;;3.78;;
27921;SDS011;15261;50.356;10.340;2023-08-21T20:13:14;4.05;;;3.35;;
27921;SDS011;15261;50.356;10.340;2023-08-21T20:15:39;4.55;;;3.60;;
27921;SDS011;15261;50.356;10.340;2023-08-21T20:18:05;5.63;;;3.55;;
27921;SDS011;15261;50.356;10.340;2023-08-21T20:20:31;6.60;;;3.47;;
27921;SDS011;15261;50.356;10.340;2023-08-21T20:22:57;4.28;;;3.70;;
27921;SDS011;15261;50.356;10.340;2023-08-21T20:25:22;6.53;;;3.63;;
27921;SDS011;15261;50.356;10.340;2023-08-21T20:27:48;8.85;;;4.18;;
27921;SDS011;15261;50.356;10.340;2023-08-21T20:30:14;5.88;;;3.50;;
27921;SDS011;15261;50.356;10.340;2023-08-21T20:32:40;8.25;;;3.85;;
27921;SDS011;15261;50.356;10.340;2023-08-21T20:35:05;4.90;;;3.55;;
27921;SDS011;15261;50.356;10.340;2023-08-21T20:40:07;5.10;;;3.80;;
27921;SDS011;15261;50.356;10.340;2023-08-21T20:42:34;5.82;;;4.20;;
27921;SDS011;15261;50.356;10.340;2023-08-21T20:45:00;7.50;;;4.38;;
27921;SDS011;15261;50.356;10.340;2023-08-21T20:47:29;4.93;;;3.85;;
27921;SDS011;15261;50.356;10.340;2023-08-21T20:49:58;5.05;;;3.85;;
27921;SDS011;15261;50.356;10.340;2023-08-21T20:52:24;4.00;;;3.60;;
27921;SDS011;15261;50.356;10.340;2023-08-21T20:54:50;4.70;;;3.70;;
27921;SDS011;15261;50.356;10.340;2023-08-21T20:57:15;6.15;;;3.83;;
27921;SDS011;15261;50.356;10.340;2023-08-21T20:59:41;8.15;;;4.30;;
27921;SDS011;15261;50.356;10.340;2023-08-21T21:02:07;4.60;;;4.00;;
27921;SDS011;15261;50.356;10.340;2023-08-21T21:04:34;7.13;;;3.95;;
27921;SDS011;15261;50.356;10.340;2023-08-21T21:07:03;7.88;;;4.28;;
27921;SDS011;15261;50.356;10.340;2023-08-21T21:09:30;4.15;;;3.75;;
27921;SDS011;15261;50.356;10.340;2023-08-21T21:11:58;5.35;;;3.80;;
27921;SDS011;15261;50.356;10.340;2023-08-21T21:14:24;5.30;;;4.10;;
27921;SDS011;15261;50.356;10.340;2023-08-21T21:16:50;6.28;;;3.97;;
27921;SDS011;15261;50.356;10.340;2023-08-21T21:19:15;5.28;;;3.80;;
27921;SDS011;15261;50.356;10.340;2023-08-21T21:21:41;6.25;;;4.22;;
27921;SDS011;15261;50.356;10.340;2023-08-21T21:24:07;7.85;;;3.97;;
27921;SDS011;15261;50.356;10.340;2023-08-21T21:26:32;5.72;;;4.10;;
27921;SDS011;15261;50.356;10.340;2023-08-21T21:28:58;11.23;;;5.07;;
27921;SDS011;15261;50.356;10.340;2023-08-21T21:31:25;4.68;;;4.28;;
27921;SDS011;15261;50.356;10.340;2023-08-21T21:33:51;6.88;;;4.15;;
27921;SDS011;15261;50.356;10.340;2023-08-21T21:36:20;7.70;;;4.10;;
27921;SDS011;15261;50.356;10.340;2023-08-21T21:38:46;4.95;;;3.83;;
27921;SDS011;15261;50.356;10.340;2023-08-21T21:41:11;7.00;;;4.28;;
27921;SDS011;15261;50.356;10.340;2023-08-21T21:43:37;6.97;;;4.15;;
27921;SDS011;15261;50.356;10.340;2023-08-21T21:46:03;5.88;;;4.07;;
27921;SDS011;15261;50.356;10.340;2023-08-21T21:48:33;6.45;;;4.00;;
27921;SDS011;15261;50.356;10.340;2023-08-21T21:50:58;8.43;;;4.28;;
27921;SDS011;15261;50.356;10.340;2023-08-21T21:53:24;8.25;;;4.10;;
27921;SDS011;15261;50.356;10.340;2023-08-21T21:55:51;4.68;;;4.05;;
27921;SDS011;15261;50.356;10.340;2023-08-21T21:58:17;5.03;;;4.15;;